Time,TemperatureF,DewpointF,PressureIn,WindDirection,WindDirectionDegrees,WindSpeedMPH,WindSpeedGustMPH,Humidity,HourlyPrecipIn,Conditions,Clouds,dailyrainin,SoftwareType,DateUTC
2013-05-24 00:02:00,47.0,44.0,-100.00,SE,143,27.0,35.0,88,0.00,,,-99.99,,2013-05-24 06:02:00,
2013-05-24 00:12:00,47.0,44.0,-100.00,SE,143,25.0,35.0,89,0.00,,,-99.99,,2013-05-24 06:12:00,
2013-05-24 00:21:00,47.0,44.0,-100.00,SE,143,28.0,37.0,90,0.00,,,-99.99,,2013-05-24 06:21:00,
2013-05-24 00:32:00,47.0,44.0,-100.00,SE,140,29.0,40.0,90,0.00,,,-99.99,,2013-05-24 06:32:00,
2013-05-24 00:41:00,47.0,44.0,-100.00,SE,136,29.0,41.0,91,0.00,,,-99.99,,2013-05-24 06:41:00,
2013-05-24 00:52:00,46.0,44.0,-100.00,SE,141,30.0,40.0,92,0.00,,,-99.99,,2013-05-24 06:52:00,
2013-05-24 01:01:00,46.0,44.0,-100.00,SSE,148,23.0,34.0,93,0.00,,,-99.99,,2013-05-24 07:01:00,
2013-05-24 01:11:00,46.0,44.0,-100.00,SSE,158,19.0,27.0,93,0.00,,,-99.99,,2013-05-24 07:11:00,
2013-05-24 01:22:00,46.0,44.0,-100.00,SE,144,24.0,34.0,93,0.00,,,-99.99,,2013-05-24 07:22:00,
2013-05-24 01:32:00,46.0,44.0,-100.00,SE,143,22.0,32.0,93,0.00,,,-99.99,,2013-05-24 07:32:00,
2013-05-24 01:52:00,46.0,44.0,-100.00,SE,137,24.0,33.0,93,0.00,,,-99.99,,2013-05-24 07:52:00,
2013-05-24 02:02:00,45.0,44.0,-100.00,SE,140,23.0,29.0,93,0.00,,,-99.99,,2013-05-24 08:02:00,
2013-05-24 02:11:00,45.0,44.0,-100.00,SE,144,19.0,25.0,94,0.00,,,-99.99,,2013-05-24 08:11:00,
2013-05-24 02:22:00,45.0,43.0,-100.00,SSE,155,14.0,22.0,94,0.00,,,-99.99,,2013-05-24 08:22:00,
2013-05-24 02:32:00,45.0,43.0,-100.00,SSE,148,15.0,27.0,93,0.00,,,-99.99,,2013-05-24 08:32:00,
2013-05-24 02:42:00,45.0,43.0,-100.00,SE,144,18.0,26.0,94,0.00,,,-99.99,,2013-05-24 08:42:00,
2013-05-24 02:52:00,45.0,43.0,-100.00,SE,138,15.0,20.0,93,0.00,,,-99.99,,2013-05-24 08:52:00,
2013-05-24 03:01:00,44.0,42.0,-100.00,SE,143,14.0,18.0,93,0.00,,,-99.99,,2013-05-24 09:01:00,
2013-05-24 03:11:00,44.0,42.0,-100.00,SSE,150,12.0,16.0,93,0.00,,,-99.99,,2013-05-24 09:11:00,
2013-05-24 03:21:00,43.0,41.0,-100.00,South,172,7.0,12.0,93,0.00,,,-99.99,,2013-05-24 09:21:00,
2013-05-24 03:32:00,42.0,40.0,-100.00,South,189,7.0,9.0,93,0.00,,,-99.99,,2013-05-24 09:32:00,
2013-05-24 03:52:00,40.0,38.0,-100.00,SSW,200,6.0,10.0,93,0.00,,,-99.99,,2013-05-24 09:52:00,
2013-05-24 04:02:00,39.0,37.0,-100.00,SSW,202,8.0,9.0,93,0.00,,,-99.99,,2013-05-24 10:02:00,
2013-05-24 04:12:00,36.0,34.0,-100.00,SW,215,9.0,10.0,93,0.00,,,-99.99,,2013-05-24 10:12:00,
2013-05-24 04:22:00,36.0,34.0,-100.00,SW,223,7.0,9.0,95,0.00,,,-99.99,,2013-05-24 10:22:00,
2013-05-24 04:32:00,36.0,35.0,-100.00,SW,216,8.0,11.0,96,0.00,,,-99.99,,2013-05-24 10:32:00,
2013-05-24 04:42:00,34.0,33.0,-100.00,SSW,210,6.0,9.0,95,0.00,,,-99.99,,2013-05-24 10:42:00,
2013-05-24 04:52:00,34.0,33.0,-100.00,West,260,5.0,6.0,96,0.00,,,-99.99,,2013-05-24 10:52:00,
2013-05-24 05:02:00,35.0,35.0,-100.00,West,270,4.0,6.0,97,0.00,,,-99.99,,2013-05-24 11:02:00,
2013-05-24 05:12:00,36.0,35.0,-100.00,WSW,254,4.0,7.0,96,0.00,,,-99.99,,2013-05-24 11:12:00,
2013-05-24 05:22:00,36.0,34.0,-100.00,WSW,246,6.0,7.0,95,0.00,,,-99.99,,2013-05-24 11:22:00,
2013-05-24 05:32:00,36.0,36.0,-100.00,WSW,243,5.0,6.0,96,0.00,,,-99.99,,2013-05-24 11:32:00,
2013-05-24 05:51:00,38.0,36.0,-100.00,SSW,210,4.0,6.0,94,0.00,,,-99.99,,2013-05-24 11:51:00,
2013-05-24 06:02:00,40.0,39.0,-100.00,WNW,288,1.0,3.0,95,0.00,,,-99.99,,2013-05-24 12:02:00,
2013-05-24 06:11:00,38.0,37.0,-100.00,NNW,344,6.0,11.0,96,0.00,,,-99.99,,2013-05-24 12:11:00,
2013-05-24 06:21:00,40.0,36.0,-100.00,North,11,4.0,6.0,87,0.00,,,-99.99,,2013-05-24 12:21:00,
2013-05-24 06:32:00,42.0,39.0,-100.00,NE,44,2.0,4.0,89,0.00,,,-99.99,,2013-05-24 12:32:00,
2013-05-24 06:42:00,44.0,38.0,-100.00,NNW,344,4.0,7.0,79,0.00,,,-99.99,,2013-05-24 12:42:00,
2013-05-24 06:52:00,41.0,37.0,-100.00,NW,306,3.0,6.0,84,0.00,,,-99.99,,2013-05-24 12:52:00,
2013-05-24 07:02:00,43.0,34.0,-100.00,WNW,291,4.0,7.0,71,0.00,,,-99.99,,2013-05-24 13:02:00,
2013-05-24 07:11:00,46.0,32.0,-100.00,WNW,285,7.0,11.0,60,0.00,,,-99.99,,2013-05-24 13:11:00,
2013-05-24 07:21:00,47.0,33.0,-100.00,West,281,11.0,14.0,58,0.00,,,-99.99,,2013-05-24 13:21:00,
2013-05-24 07:32:00,46.0,34.0,-100.00,West,280,8.0,10.0,63,0.00,,,-99.99,,2013-05-24 13:32:00,
2013-05-24 07:41:00,46.0,33.0,-100.00,West,280,8.0,10.0,59,0.00,,,-99.99,,2013-05-24 13:41:00,
2013-05-24 07:52:00,47.0,31.0,-100.00,WNW,296,7.0,9.0,55,0.00,,,-99.99,,2013-05-24 13:52:00,
2013-05-24 08:01:00,47.0,30.0,-100.00,West,278,10.0,13.0,50,0.00,,,-99.99,,2013-05-24 14:01:00,
2013-05-24 08:11:00,46.0,32.0,-100.00,West,280,10.0,12.0,58,0.00,,,-99.99,,2013-05-24 14:11:00,
2013-05-24 08:21:00,46.0,32.0,-100.00,WNW,285,9.0,11.0,58,0.00,,,-99.99,,2013-05-24 14:21:00,
2013-05-24 08:32:00,48.0,31.0,-100.00,WNW,302,7.0,10.0,52,0.00,,,-99.99,,2013-05-24 14:32:00,
2013-05-24 08:42:00,49.0,31.0,-100.00,WNW,298,6.0,7.0,49,0.00,,,-99.99,,2013-05-24 14:42:00,
2013-05-24 08:52:00,51.0,32.0,-100.00,West,280,3.0,6.0,47,0.00,,,-99.99,,2013-05-24 14:52:00,
2013-05-24 09:02:00,53.0,28.0,-100.00,SW,219,1.0,3.0,38,0.00,,,-99.99,,2013-05-24 15:02:00,
2013-05-24 09:11:00,53.0,29.0,-100.00,South,186,1.0,6.0,40,0.00,,,-99.99,,2013-05-24 15:11:00,
2013-05-24 09:21:00,54.0,30.0,-100.00,ESE,107,4.0,11.0,39,0.00,,,-99.99,,2013-05-24 15:21:00,
2013-05-24 09:32:00,53.0,29.0,-100.00,ESE,110,7.0,12.0,40,0.00,,,-99.99,,2013-05-24 15:32:00,
2013-05-24 09:43:00,54.0,30.0,-100.00,East,93,6.0,11.0,41,0.00,,,-99.99,,2013-05-24 15:43:00,
2013-05-24 09:52:00,55.0,31.0,-100.00,ESE,103,7.0,11.0,40,0.00,,,-99.99,,2013-05-24 15:52:00,
2013-05-24 10:03:00,54.0,30.0,-100.00,ESE,107,8.0,12.0,38,0.00,,,-99.99,,2013-05-24 16:03:00,
2013-05-24 10:12:00,55.0,32.0,-100.00,ESE,104,9.0,14.0,42,0.00,,,-99.99,,2013-05-24 16:12:00,
2013-05-24 10:22:00,58.0,32.0,-100.00,SE,128,9.0,14.0,38,0.00,,,-99.99,,2013-05-24 16:22:00,
2013-05-24 10:32:00,57.0,28.0,-100.00,SE,127,7.0,14.0,33,0.00,,,-99.99,,2013-05-24 16:32:00,
2013-05-24 10:42:00,58.0,28.0,-100.00,ESE,119,6.0,12.0,31,0.00,,,-99.99,,2013-05-24 16:42:00,
2013-05-24 10:52:00,60.0,28.0,-100.00,SE,130,7.0,12.0,29,0.00,,,-99.99,,2013-05-24 16:52:00,
2013-05-24 11:02:00,61.0,29.0,-100.00,SE,126,5.0,10.0,29,0.00,,,-99.99,,2013-05-24 17:02:00,
2013-05-24 11:12:00,61.0,28.0,-100.00,ESE,110,4.0,11.0,29,0.00,,,-99.99,,2013-05-24 17:12:00,
2013-05-24 11:32:00,62.0,25.0,-100.00,SE,133,4.0,7.0,24,0.00,,,-99.99,,2013-05-24 17:32:00,
2013-05-24 11:41:00,63.0,26.0,-100.00,SE,127,5.0,11.0,25,0.00,,,-99.99,,2013-05-24 17:41:00,
2013-05-24 11:52:00,64.0,26.0,-100.00,SSE,148,5.0,12.0,24,0.00,,,-99.99,,2013-05-24 17:52:00,
2013-05-24 12:01:00,64.0,25.0,-100.00,SW,223,4.0,9.0,22,0.00,,,-99.99,,2013-05-24 18:01:00,
2013-05-24 12:11:00,64.0,26.0,-100.00,South,182,6.0,14.0,23,0.00,,,-99.99,,2013-05-24 18:11:00,
2013-05-24 12:21:00,65.0,25.0,-100.00,SSW,209,4.0,11.0,22,0.00,,,-99.99,,2013-05-24 18:21:00,
2013-05-24 12:32:00,63.0,25.0,-100.00,West,272,5.0,10.0,23,0.00,,,-99.99,,2013-05-24 18:32:00,
2013-05-24 12:41:00,65.0,25.0,-100.00,NNE,23,3.0,8.0,22,0.00,,,-99.99,,2013-05-24 18:41:00,
2013-05-24 12:51:00,67.0,25.0,-100.00,SSE,157,7.0,23.0,21,0.00,,,-99.99,,2013-05-24 18:51:00,
2013-05-24 13:01:00,67.0,17.0,-100.00,SW,232,19.0,30.0,15,0.00,,,-99.99,,2013-05-24 19:01:00,
2013-05-24 13:11:00,67.0,26.0,-100.00,WSW,237,14.0,24.0,21,0.00,,,-99.99,,2013-05-24 19:11:00,
2013-05-24 13:21:00,68.0,18.0,-100.00,SW,229,16.0,25.0,15,0.00,,,-99.99,,2013-05-24 19:21:00,
2013-05-24 13:32:00,68.0,15.0,-100.00,SSW,210,18.0,27.0,13,0.00,,,-99.99,,2013-05-24 19:32:00,
2013-05-24 13:41:00,68.0,18.0,-100.00,SW,227,18.0,29.0,14,0.00,,,-99.99,,2013-05-24 19:41:00,
2013-05-24 13:52:00,69.0,20.0,-100.00,WSW,244,22.0,31.0,15,0.00,,,-99.99,,2013-05-24 19:52:00,
2013-05-24 14:02:00,69.0,17.0,-100.00,WSW,240,22.0,29.0,14,0.00,,,-99.99,,2013-05-24 20:02:00,
2013-05-24 14:11:00,69.0,16.0,-100.00,WSW,240,21.0,32.0,13,0.00,,,-99.99,,2013-05-24 20:11:00,
2013-05-24 14:21:00,69.0,18.0,-100.00,WSW,240,21.0,29.0,14,0.00,,,-99.99,,2013-05-24 20:21:00,
2013-05-24 14:32:00,69.0,18.0,-100.00,WSW,243,21.0,29.0,14,0.00,,,-99.99,,2013-05-24 20:32:00,
2013-05-24 14:41:00,69.0,16.0,-100.00,WSW,240,20.0,29.0,13,0.00,,,-99.99,,2013-05-24 20:41:00,
2013-05-24 14:51:00,69.0,17.0,-100.00,WSW,241,19.0,29.0,13,0.00,,,-99.99,,2013-05-24 20:51:00,
2013-05-24 15:01:00,70.0,17.0,-100.00,SW,234,21.0,32.0,13,0.00,,,-99.99,,2013-05-24 21:01:00,
2013-05-24 15:11:00,70.0,18.0,-100.00,SW,216,21.0,32.0,14,0.00,,,-99.99,,2013-05-24 21:11:00,
2013-05-24 15:21:00,71.0,19.0,-100.00,SW,223,22.0,34.0,14,0.00,,,-99.99,,2013-05-24 21:21:00,
2013-05-24 15:32:00,71.0,15.0,-100.00,SSW,212,18.0,57.0,12,0.00,,,-99.99,,2013-05-24 21:32:00,
2013-05-24 15:42:00,71.0,22.0,-100.00,SW,234,16.0,23.0,16,0.00,,,-99.99,,2013-05-24 21:42:00,
2013-05-24 15:52:00,71.0,18.0,-100.00,SW,223,19.0,26.0,13,0.00,,,-99.99,,2013-05-24 21:52:00,
2013-05-24 16:02:00,71.0,22.0,-100.00,SW,224,16.0,24.0,16,0.00,,,-99.99,,2013-05-24 22:02:00,
2013-05-24 16:12:00,71.0,20.0,-100.00,SW,215,16.0,31.0,14,0.00,,,-99.99,,2013-05-24 22:12:00,
2013-05-24 16:22:00,72.0,17.0,-100.00,SSW,192,17.0,23.0,12,0.00,,,-99.99,,2013-05-24 22:22:00,
2013-05-24 16:33:00,72.0,18.0,-100.00,South,171,12.0,22.0,13,0.00,,,-99.99,,2013-05-24 22:33:00,
2013-05-24 16:42:00,71.0,20.0,-100.00,South,191,11.0,19.0,14,0.00,,,-99.99,,2013-05-24 22:42:00,
2013-05-24 16:52:00,70.0,18.0,-100.00,South,191,10.0,15.0,13,0.00,,,-99.99,,2013-05-24 22:52:00,
2013-05-24 17:02:00,68.0,24.0,-100.00,SSW,200,16.0,22.0,19,0.00,,,-99.99,,2013-05-24 23:02:00,
2013-05-24 17:11:00,70.0,22.0,-100.00,SSW,210,17.0,24.0,16,0.00,,,-99.99,,2013-05-24 23:11:00,
2013-05-24 17:22:00,72.0,20.0,-100.00,SSW,208,15.0,24.0,14,0.00,,,-99.99,,2013-05-24 23:22:00,
2013-05-24 17:32:00,71.0,23.0,-100.00,SSW,199,19.0,26.0,16,0.00,,,-99.99,,2013-05-24 23:32:00,
2013-05-24 17:42:00,71.0,21.0,-100.00,SSW,196,13.0,23.0,15,0.00,,,-99.99,,2013-05-24 23:42:00,
2013-05-24 17:52:00,71.0,21.0,-100.00,SSW,202,19.0,26.0,15,0.00,,,-99.99,,2013-05-24 23:52:00,
2013-05-24 18:01:00,71.0,19.0,-100.00,SSW,206,16.0,24.0,14,0.00,,,-99.99,,2013-05-25 00:01:00,
2013-05-24 18:11:00,70.0,20.0,-100.00,SSW,209,17.0,22.0,15,0.00,,,-99.99,,2013-05-25 00:11:00,
2013-05-24 18:21:00,70.0,19.0,-100.00,SW,226,19.0,26.0,15,0.00,,,-99.99,,2013-05-25 00:21:00,
2013-05-24 18:32:00,69.0,23.0,-100.00,SW,223,20.0,27.0,17,0.00,,,-99.99,,2013-05-25 00:32:00,
2013-05-24 18:41:00,69.0,20.0,-100.00,SW,230,17.0,25.0,16,0.00,,,-99.99,,2013-05-25 00:41:00,
2013-05-24 18:51:00,69.0,27.0,-100.00,SW,227,16.0,21.0,21,0.00,,,-99.99,,2013-05-25 00:51:00,
2013-05-24 19:01:00,68.0,21.0,-100.00,SW,220,15.0,21.0,16,0.00,,,-99.99,,2013-05-25 01:01:00,
2013-05-24 19:11:00,67.0,27.0,-100.00,SW,227,14.0,17.0,22,0.00,,,-99.99,,2013-05-25 01:11:00,
2013-05-24 19:22:00,67.0,30.0,-100.00,SW,234,11.0,16.0,24,0.00,,,-99.99,,2013-05-25 01:22:00,
2013-05-24 19:32:00,67.0,31.0,-100.00,SW,230,8.0,11.0,26,0.00,,,-99.99,,2013-05-25 01:32:00,
2013-05-24 19:41:00,65.0,31.0,-100.00,SW,226,9.0,11.0,27,0.00,,,-99.99,,2013-05-25 01:41:00,
2013-05-24 19:52:00,63.0,32.0,-100.00,SW,224,7.0,11.0,31,0.00,,,-99.99,,2013-05-25 01:52:00,
2013-05-24 20:01:00,63.0,32.0,-100.00,WSW,241,6.0,9.0,30,0.00,,,-99.99,,2013-05-25 02:01:00,
2013-05-24 20:11:00,63.0,31.0,-100.00,WSW,237,7.0,9.0,29,0.00,,,-99.99,,2013-05-25 02:11:00,
2013-05-24 20:21:00,65.0,27.0,-100.00,WSW,248,5.0,7.0,24,0.00,,,-99.99,,2013-05-25 02:21:00,
2013-05-24 20:31:00,61.0,28.0,-100.00,NNW,335,5.0,7.0,29,0.00,,,-99.99,,2013-05-25 02:31:00,
2013-05-24 20:42:00,60.0,34.0,-100.00,North,4,4.0,6.0,37,0.00,,,-99.99,,2013-05-25 02:42:00,
2013-05-24 20:51:00,61.0,36.0,-100.00,NNE,30,4.0,7.0,39,0.00,,,-99.99,,2013-05-25 02:51:00,
2013-05-24 21:01:00,58.0,30.0,-100.00,NE,51,3.0,10.0,34,0.00,,,-99.99,,2013-05-25 03:01:00,
2013-05-24 21:11:00,63.0,32.0,-100.00,SE,143,9.0,19.0,31,0.00,,,-99.99,,2013-05-25 03:11:00,
2013-05-24 21:21:00,62.0,32.0,-100.00,ESE,117,9.0,17.0,33,0.00,,,-99.99,,2013-05-25 03:21:00,
2013-05-24 21:32:00,60.0,32.0,-100.00,ESE,120,6.0,9.0,35,0.00,,,-99.99,,2013-05-25 03:32:00,
2013-05-24 21:43:00,57.0,32.0,-100.00,ESE,112,7.0,11.0,38,0.00,,,-99.99,,2013-05-25 03:43:00,
2013-05-24 21:53:00,60.0,31.0,-100.00,SE,128,4.0,9.0,34,0.00,,,-99.99,,2013-05-25 03:53:00,
2013-05-24 22:02:00,60.0,31.0,-100.00,SE,134,6.0,9.0,34,0.00,,,-99.99,,2013-05-25 04:02:00,
2013-05-24 22:12:00,57.0,32.0,-100.00,SSE,161,6.0,9.0,38,0.00,,,-99.99,,2013-05-25 04:12:00,
2013-05-24 22:23:00,56.0,32.0,-100.00,South,171,4.0,6.0,40,0.00,,,-99.99,,2013-05-25 04:23:00,
2013-05-24 22:33:00,55.0,34.0,-100.00,South,189,4.0,6.0,44,0.00,,,-99.99,,2013-05-25 04:33:00,
2013-05-24 22:43:00,51.0,34.0,-100.00,SW,232,6.0,11.0,53,0.00,,,-99.99,,2013-05-25 04:43:00,
2013-05-24 22:52:00,54.0,33.0,-100.00,SW,217,6.0,9.0,44,0.00,,,-99.99,,2013-05-25 04:52:00,
2013-05-24 23:02:00,53.0,35.0,-100.00,SW,215,5.0,7.0,51,0.00,,,-99.99,,2013-05-25 05:02:00,
2013-05-24 23:12:00,51.0,35.0,-100.00,SW,215,6.0,7.0,54,0.00,,,-99.99,,2013-05-25 05:12:00,
2013-05-24 23:22:00,50.0,34.0,-100.00,SSW,196,6.0,7.0,54,0.00,,,-99.99,,2013-05-25 05:22:00,
2013-05-24 23:32:00,51.0,35.0,-100.00,SSW,196,6.0,7.0,54,0.00,,,-99.99,,2013-05-25 05:32:00,
2013-05-24 23:42:00,49.0,35.0,-100.00,SSW,199,4.0,6.0,60,0.00,,,-99.99,,2013-05-25 05:42:00,
2013-05-24 23:52:00,50.0,36.0,-100.00,SSW,195,5.0,7.0,58,0.00,,,-99.99,,2013-05-25 05:52:00,